Time;durP1;ratioP1;P1;durP2;ratioP2;P2;SDS_P1;SDS_P2;PMS_P1;PMS_P2;Temp;Humidity;BMP_temperature;BMP_pressure;BME280_temperature;BME280_humidity;BME280_pressure;Samples;Min_cycle;Max_cycle;Signal;HPM_P1;HPM_P2
2021/10/02 04:00:33;;;;;;;10.97;9.80;;;14.90;99.90;;;;;;5960227;23;21657;-69
2021/10/02 04:02:59;;;;;;;11.17;10.17;;;14.80;99.90;;;;;;5015808;28;20443;-69
2021/10/02 04:05:26;;;;;;;13.33;10.00;;;14.70;99.90;;;;;;5014832;28;20954;-69
2021/10/02 04:07:53;;;;;;;10.37;9.30;;;14.70;99.90;;;;;;5015819;28;20452;-69
2021/10/02 04:10:20;;;;;;;10.10;9.17;;;14.60;99.90;;;;;;5015545;28;20511;-69
2021/10/02 04:12:46;;;;;;;11.00;9.30;;;14.50;99.90;;;;;;5015444;28;20441;-68
2021/10/02 04:15:13;;;;;;;10.17;9.17;;;14.40;99.90;;;;;;5015401;28;20903;-69
2021/10/02 04:17:41;;;;;;;11.03;10.03;;;14.30;99.90;;;;;;5015525;28;20460;-68
2021/10/02 04:20:09;;;;;;;9.33;8.43;;;14.20;99.90;;;;;;5015564;28;20452;-70
2021/10/02 04:22:36;;;;;;;11.30;10.30;;;14.20;99.90;;;;;;5015539;28;20453;-69
2021/10/02 04:25:03;;;;;;;9.50;8.60;;;14.20;99.90;;;;;;5015615;28;20457;-69
2021/10/02 04:27:30;;;;;;;10.30;9.40;;;14.20;99.90;;;;;;5015360;28;20815;-69
2021/10/02 04:29:57;;;;;;;9.60;8.67;;;14.20;99.90;;;;;;5015414;28;20457;-68
2021/10/02 04:32:23;;;;;;;10.23;9.30;;;14.20;99.90;;;;;;5017212;28;21021;-69
2021/10/02 04:34:51;;;;;;;9.10;8.27;;;14.10;99.90;;;;;;5019275;28;20457;-70
2021/10/02 04:37:18;;;;;;;10.03;9.13;;;14.10;99.90;;;;;;5015147;28;20457;-69
2021/10/02 04:39:45;;;;;;;11.50;8.90;;;14.10;99.90;;;;;;5014765;28;20459;-70
2021/10/02 04:42:11;;;;;;;9.53;8.67;;;14.10;99.90;;;;;;5015143;28;20477;-70
2021/10/02 04:44:38;;;;;;;10.20;9.20;;;14.10;99.90;;;;;;5015325;28;20456;-70
2021/10/02 04:47:05;;;;;;;9.77;8.87;;;14.20;99.90;;;;;;5014978;28;20453;-70
2021/10/02 04:49:32;;;;;;;9.17;8.23;;;14.20;99.90;;;;;;5015189;28;20456;-69
2021/10/02 04:52:00;;;;;;;10.07;8.93;;;14.20;99.90;;;;;;5014539;28;20504;-70
2021/10/02 04:54:26;;;;;;;9.30;8.40;;;14.20;99.90;;;;;;5014865;28;20449;-68
2021/10/02 04:56:53;;;;;;;9.63;8.63;;;14.20;99.90;;;;;;5014519;28;20456;-68
2021/10/02 04:59:20;;;;;;;9.37;8.03;;;14.20;99.90;;;;;;5015234;28;20468;-69
2021/10/02 05:01:46;;;;;;;9.00;8.20;;;14.20;99.90;;;;;;5014218;28;21006;-70
2021/10/02 05:04:13;;;;;;;9.73;8.83;;;14.20;99.90;;;;;;5014588;28;20463;-70
2021/10/02 05:06:40;;;;;;;9.40;8.50;;;14.20;99.90;;;;;;5014608;28;20460;-71
2021/10/02 05:09:08;;;;;;;9.43;8.70;;;14.20;99.90;;;;;;5017100;28;20544;-70
2021/10/02 05:11:35;;;;;;;9.47;8.57;;;14.10;99.90;;;;;;5018270;28;20995;-70
2021/10/02 05:14:01;;;;;;;11.00;9.83;;;14.10;99.90;;;;;;5018527;28;20457;-68
2021/10/02 05:16:28;;;;;;;9.93;9.07;;;14.10;99.90;;;;;;5018415;28;20832;-68
2021/10/02 05:18:55;;;;;;;10.27;9.27;;;14.10;99.90;;;;;;5018572;28;20453;-68
2021/10/02 05:21:22;;;;;;;9.60;8.63;;;14.10;99.90;;;;;;5018484;28;20472;-68
2021/10/02 05:23:48;;;;;;;10.37;9.47;;;14.00;99.90;;;;;;5018083;28;20503;-69
2021/10/02 05:26:16;;;;;;;12.37;11.27;;;14.00;99.90;;;;;;5018110;28;20939;-69
2021/10/02 05:28:43;;;;;;;10.57;9.23;;;13.90;99.90;;;;;;5018939;28;20457;-69
2021/10/02 05:31:10;;;;;;;10.53;9.60;;;13.90;99.90;;;;;;5018734;28;20843;-70
2021/10/02 05:33:37;;;;;;;10.47;9.57;;;13.90;99.90;;;;;;5018512;28;20456;-70
2021/10/02 05:36:04;;;;;;;13.60;9.50;;;13.90;99.90;;;;;;5018384;28;20459;-70
2021/10/02 05:38:30;;;;;;;9.60;8.70;;;13.90;99.90;;;;;;5018030;28;20448;-70
2021/10/02 05:40:58;;;;;;;10.50;9.50;;;13.90;99.90;;;;;;5017993;28;20479;-70
2021/10/02 05:43:26;;;;;;;9.50;8.63;;;13.80;99.90;;;;;;5018597;28;20791;-70
2021/10/02 05:45:52;;;;;;;11.33;8.63;;;13.80;99.90;;;;;;5017521;28;20456;-70
2021/10/02 05:48:19;;;;;;;10.97;9.43;;;13.80;99.90;;;;;;5017418;28;20470;-69
2021/10/02 05:50:46;;;;;;;10.13;9.23;;;13.90;99.90;;;;;;5017634;28;20481;-70
2021/10/02 05:53:13;;;;;;;9.10;8.20;;;13.90;99.90;;;;;;5017549;28;20456;-70
2021/10/02 05:55:39;;;;;;;9.53;8.73;;;14.00;99.90;;;;;;5017502;28;20495;-70
2021/10/02 05:58:06;;;;;;;10.00;9.20;;;14.10;99.90;;;;;;5017592;28;20452;-69
2021/10/02 06:00:34;;;;;;;8.90;8.00;;;14.20;99.90;;;;;;5017506;28;20850;-70
2021/10/02 06:03:01;;;;;;;9.77;8.80;;;14.30;99.90;;;;;;5020084;28;20437;-69
2021/10/02 06:05:28;;;;;;;10.43;9.43;;;14.40;99.90;;;;;;5023197;28;20519;-69
2021/10/02 06:07:56;;;;;;;9.40;8.57;;;14.50;99.90;;;;;;5017535;28;20453;-70
2021/10/02 06:10:23;;;;;;;8.97;8.27;;;14.60;99.90;;;;;;5017863;28;20456;-70
2021/10/02 06:12:53;;;;;;;11.20;8.63;;;14.60;99.90;;;;;;5017194;28;20480;-70
2021/10/02 06:15:20;;;;;;;8.63;7.83;;;14.60;99.90;;;;;;5017066;28;20523;-68
2021/10/02 06:17:48;;;;;;;10.07;8.20;;;14.60;99.90;;;;;;5016950;28;20479;-68
2021/10/02 06:20:15;;;;;;;9.47;8.57;;;14.60;99.90;;;;;;5016221;28;20452;-69
2021/10/02 06:22:41;;;;;;;9.20;8.40;;;14.70;99.90;;;;;;5016936;28;20451;-70
2021/10/02 06:25:11;;;;;;;11.20;8.50;;;14.80;99.90;;;;;;5016842;28;20456;-70
2021/10/02 06:27:38;;;;;;;9.43;8.67;;;14.90;99.90;;;;;;5016868;28;20479;-70
2021/10/02 06:30:07;;;;;;;8.50;7.80;;;14.90;99.90;;;;;;5016794;28;20448;-71
2021/10/02 06:32:34;;;;;;;8.80;8.10;;;15.00;99.90;;;;;;5016922;28;20488;-71
2021/10/02 06:35:02;;;;;;;9.23;8.33;;;15.10;99.90;;;;;;5017006;28;20457;-70
2021/10/02 06:37:28;;;;;;;10.00;8.90;;;15.20;99.90;;;;;;5016482;28;20453;-71
2021/10/02 06:39:55;;;;;;;10.33;9.33;;;15.20;99.90;;;;;;5016971;28;20464;-71
2021/10/02 06:42:22;;;;;;;10.67;9.63;;;15.30;99.90;;;;;;5017059;28;20475;-71
2021/10/02 06:44:49;;;;;;;9.80;8.90;;;15.40;99.90;;;;;;5016306;28;20812;-71
2021/10/02 06:47:15;;;;;;;9.73;8.93;;;15.30;99.90;;;;;;5016838;28;20449;-71
2021/10/02 06:49:42;;;;;;;14.97;9.80;;;15.30;99.90;;;;;;5016714;28;20460;-71
2021/10/02 06:52:10;;;;;;;10.30;9.30;;;15.40;99.90;;;;;;5016841;28;20484;-70
2021/10/02 06:54:37;;;;;;;10.53;9.60;;;15.40;99.90;;;;;;5018298;28;20457;-70
2021/10/02 06:57:05;;;;;;;9.80;8.80;;;15.50;99.90;;;;;;5017514;28;20456;-70
2021/10/02 06:59:31;;;;;;;10.10;9.20;;;15.50;99.90;;;;;;5016983;28;20487;-71
2021/10/02 07:01:58;;;;;;;10.13;9.23;;;15.70;99.90;;;;;;5016319;28;20538;-70
2021/10/02 07:04:25;;;;;;;9.60;8.70;;;15.80;99.90;;;;;;5016815;28;20803;-71
2021/10/02 07:06:52;;;;;;;12.57;9.13;;;16.00;99.90;;;;;;5017359;28;20495;-70
2021/10/02 07:09:20;;;;;;;8.50;7.70;;;16.30;99.90;;;;;;5016601;28;20457;-70
2021/10/02 07:11:46;;;;;;;9.27;8.57;;;16.60;99.90;;;;;;5015832;28;20480;-70
2021/10/02 07:14:13;;;;;;;8.70;7.90;;;16.80;99.90;;;;;;5016368;28;20459;-70
2021/10/02 07:16:40;;;;;;;9.63;8.87;;;17.20;99.90;;;;;;5015895;28;20456;-70
2021/10/02 07:19:06;;;;;;;8.97;8.07;;;17.40;99.90;;;;;;5016422;28;20457;-69
2021/10/02 07:21:33;;;;;;;9.20;8.43;;;17.70;99.90;;;;;;5017178;28;20828;-69
2021/10/02 07:24:03;;;;;;;8.33;7.73;;;18.10;99.90;;;;;;5016927;28;20457;-69
2021/10/02 07:26:31;;;;;;;9.13;8.33;;;18.30;99.90;;;;;;5017612;28;20453;-70
2021/10/02 07:28:58;;;;;;;8.87;8.10;;;18.50;99.90;;;;;;5017127;28;20457;-69
2021/10/02 07:31:25;;;;;;;8.97;8.10;;;18.90;99.90;;;;;;5016137;28;20481;-70
2021/10/02 07:33:55;;;;;;;8.37;7.57;;;19.20;99.90;;;;;;5022668;28;20429;-70
2021/10/02 07:36:22;;;;;;;9.40;8.50;;;19.60;99.90;;;;;;5025181;28;20468;-71
2021/10/02 07:38:49;;;;;;;8.90;8.10;;;19.90;99.90;;;;;;5015770;28;20859;-71
2021/10/02 07:41:17;;;;;;;10.30;8.40;;;20.00;99.90;;;;;;5016063;28;20472;-70
2021/10/02 07:43:52;;;;;;;8.70;8.00;;;20.10;99.90;;;;;;5016118;28;20921;-71
2021/10/02 07:46:21;;;;;;;9.03;8.17;;;20.10;99.90;;;;;;5015918;28;20797;-70
2021/10/02 07:48:47;;;;;;;8.20;7.50;;;20.00;99.90;;;;;;5015612;28;20449;-70
2021/10/02 07:51:14;;;;;;;8.50;7.80;;;20.70;99.90;;;;;;5015765;28;20469;-70
2021/10/02 07:53:43;;;;;;;9.03;8.23;;;21.70;99.90;;;;;;5016350;28;20844;-71
2021/10/02 07:56:12;;;;;;;8.40;7.70;;;22.80;99.90;;;;;;5015490;28;20821;-71
2021/10/02 07:58:39;;;;;;;8.43;7.83;;;23.50;99.90;;;;;;5016145;28;20456;-72
2021/10/02 08:01:07;;;;;;;9.73;7.93;;;24.10;99.90;;;;;;5016476;28;20477;-72
2021/10/02 08:03:34;;;;;;;9.67;8.40;;;24.40;99.90;;;;;;5015712;28;20453;-71
2021/10/02 08:06:01;;;;;;;8.60;7.90;;;24.40;99.90;;;;;;5015785;28;20468;-69
2021/10/02 08:08:28;;;;;;;8.40;7.60;;;24.50;99.90;;;;;;5015317;28;20459;-71
2021/10/02 08:10:55;;;;;;;8.40;7.70;;;24.80;99.90;;;;;;5015129;28;20991;-71
2021/10/02 08:13:22;;;;;;;8.53;7.37;;;24.90;99.90;;;;;;5015320;28;21082;-71
2021/10/02 08:15:55;;;;;;;8.33;7.67;;;25.50;99.20;;;;;;5015264;28;20456;-71
2021/10/02 08:18:25;;;;;;;9.70;7.80;;;25.80;98.50;;;;;;5015097;28;20442;-71
2021/10/02 08:20:54;;;;;;;7.27;6.53;;;26.50;97.40;;;;;;5014915;28;20472;-71
2021/10/02 08:23:23;;;;;;;7.50;6.80;;;27.20;95.20;;;;;;5015384;28;20459;-72
2021/10/02 08:25:52;;;;;;;8.10;7.40;;;27.60;91.80;;;;;;5015453;28;20457;-72
2021/10/02 08:28:19;;;;;;;7.43;6.90;;;28.10;90.60;;;;;;5015649;28;20491;-71
2021/10/02 08:30:47;;;;;;;6.57;6.03;;;28.80;89.30;;;;;;5015114;28;20473;-71
2021/10/02 08:33:15;;;;;;;7.10;6.50;;;29.10;83.40;;;;;;5014678;28;20879;-71
2021/10/02 08:35:43;;;;;;;7.93;7.23;;;29.50;82.20;;;;;;5015626;28;20457;-72
2021/10/02 08:38:11;;;;;;;6.07;5.53;;;29.90;81.00;;;;;;5018107;28;20453;-71
2021/10/02 08:40:38;;;;;;;6.83;6.33;;;29.90;75.50;;;;;;5015851;28;20932;-71
2021/10/02 08:43:11;;;;;;;6.30;5.90;;;30.00;73.10;;;;;;5014408;28;20449;-71
2021/10/02 08:45:38;;;;;;;7.37;6.77;;;30.50;73.70;;;;;;5015127;28;20460;-71
2021/10/02 08:48:05;;;;;;;5.90;5.40;;;30.50;71.90;;;;;;5014703;28;20861;-70
2021/10/02 08:50:33;;;;;;;6.73;6.13;;;31.10;74.30;;;;;;5014528;28;20850;-72
2021/10/02 08:53:01;;;;;;;6.00;5.60;;;31.00;69.40;;;;;;5015127;28;20925;-72
2021/10/02 08:55:29;;;;;;;5.63;5.23;;;31.10;67.70;;;;;;5015038;28;20567;-72
2021/10/02 08:57:55;;;;;;;6.17;5.10;;;31.40;68.90;;;;;;5014965;28;20456;-71
2021/10/02 09:00:24;;;;;;;5.67;5.30;;;31.80;62.60;;;;;;5015078;28;20459;-70
2021/10/02 09:02:53;;;;;;;5.33;4.93;;;31.90;64.00;;;;;;5014951;28;20445;-71
2021/10/02 09:05:21;;;;;;;6.10;5.60;;;31.80;60.30;;;;;;5016175;28;20453;-71
2021/10/02 09:07:50;;;;;;;5.50;5.10;;;31.40;62.60;;;;;;5026854;28;20452;-71
2021/10/02 09:10:19;;;;;;;5.57;5.17;;;31.60;61.50;;;;;;5014818;28;20850;-71
2021/10/02 09:12:47;;;;;;;9.73;8.00;;;31.50;61.00;;;;;;5014949;28;20478;-69
2021/10/02 09:15:14;;;;;;;10.90;9.80;;;31.90;60.50;;;;;;5014750;28;20620;-70
2021/10/02 09:17:41;;;;;;;18.17;16.27;;;31.90;59.30;;;;;;5014996;28;20465;-70
2021/10/02 09:20:10;;;;;;;4.93;4.53;;;31.70;60.00;;;;;;5014840;28;20458;-69
2021/10/02 09:22:38;;;;;;;6.87;4.20;;;32.10;58.40;;;;;;5014569;28;20480;-70
2021/10/02 09:25:07;;;;;;;4.53;4.20;;;32.20;57.20;;;;;;5014501;28;20459;-70
2021/10/02 09:27:36;;;;;;;4.83;4.53;;;32.00;55.60;;;;;;5014831;28;20453;-70
2021/10/02 09:30:07;;;;;;;4.83;4.20;;;31.90;55.80;;;;;;5014833;28;20463;-69
2021/10/02 09:32:36;;;;;;;5.43;3.80;;;31.90;56.00;;;;;;5020450;28;20533;-70
2021/10/02 09:35:08;;;;;;;4.27;3.97;;;31.90;55.10;;;;;;5016084;28;20450;-69
2021/10/02 09:37:36;;;;;;;5.53;4.33;;;31.90;55.10;;;;;;5015485;28;20446;-70
2021/10/02 09:40:07;;;;;;;3.87;3.57;;;32.00;54.20;;;;;;5014658;28;20469;-70
2021/10/02 09:42:37;;;;;;;3.40;3.20;;;32.30;53.60;;;;;;5014654;28;20483;-70
2021/10/02 09:45:08;;;;;;;3.20;3.00;;;32.50;53.70;;;;;;5014073;28;20460;-70
2021/10/02 09:47:35;;;;;;;2.73;2.63;;;33.10;53.10;;;;;;5014168;28;20458;-70
2021/10/02 09:50:07;;;;;;;3.17;2.87;;;33.30;50.60;;;;;;5014605;28;20470;-69
2021/10/02 09:52:36;;;;;;;4.03;3.00;;;33.20;51.30;;;;;;5014574;28;20866;-71
2021/10/02 09:55:18;;;;;;;2.90;2.70;;;33.80;49.60;;;;;;5014858;28;20457;-71
2021/10/02 09:57:48;;;;;;;2.97;2.83;;;34.00;47.60;;;;;;5020827;28;20443;-71
2021/10/02 10:00:17;;;;;;;3.67;3.10;;;34.00;47.80;;;;;;5017453;28;20464;-70
2021/10/02 10:02:45;;;;;;;3.40;2.80;;;33.50;47.70;;;;;;5018319;28;20445;-70
2021/10/02 10:05:13;;;;;;;3.37;3.17;;;33.50;47.90;;;;;;5017900;28;20450;-71
2021/10/02 10:07:49;;;;;;;5.63;3.00;;;33.60;47.60;;;;;;5017162;28;20825;-71
2021/10/02 10:10:16;;;;;;;3.10;3.00;;;33.60;47.20;;;;;;5018340;28;20463;-71
2021/10/02 10:12:43;;;;;;;2.93;2.73;;;33.60;48.20;;;;;;5017798;28;20485;-71
2021/10/02 10:15:27;;;;;;;2.93;2.73;;;33.70;47.90;;;;;;5017616;28;20486;-71
2021/10/02 10:17:54;;;;;;;3.27;3.07;;;33.50;47.40;;;;;;5017582;28;20778;-71
2021/10/02 10:20:31;;;;;;;3.50;3.20;;;33.50;47.70;;;;;;5017419;28;20464;-73
2021/10/02 10:22:58;;;;;;;4.60;3.00;;;33.30;47.00;;;;;;5017488;28;20441;-71
2021/10/02 10:25:25;;;;;;;3.50;3.03;;;33.10;47.90;;;;;;5017401;28;20458;-71
2021/10/02 10:27:52;;;;;;;3.47;3.17;;;32.70;48.00;;;;;;5017364;28;20463;-70
2021/10/02 10:30:22;;;;;;;5.00;3.40;;;32.60;48.40;;;;;;5017708;28;20856;-70
2021/10/02 10:33:00;;;;;;;3.47;3.17;;;32.80;48.10;;;;;;5016986;28;20474;-70
2021/10/02 10:35:30;;;;;;;3.20;3.00;;;32.60;48.40;;;;;;5017541;28;20440;-70
2021/10/02 10:37:57;;;;;;;3.27;3.07;;;33.00;48.10;;;;;;5024775;28;20435;-70
2021/10/02 10:40:24;;;;;;;3.20;2.83;;;32.60;48.10;;;;;;5021664;28;20466;-71
2021/10/02 10:42:53;;;;;;;3.60;3.30;;;32.30;48.40;;;;;;5017412;28;20455;-70
2021/10/02 10:45:20;;;;;;;3.73;3.10;;;32.20;49.10;;;;;;5017694;28;20447;-69
2021/10/02 10:47:47;;;;;;;3.57;3.37;;;31.90;49.20;;;;;;5017013;28;20458;-71
2021/10/02 10:50:15;;;;;;;5.70;3.37;;;31.30;50.20;;;;;;5017012;28;20605;-71
2021/10/02 10:52:44;;;;;;;3.63;3.33;;;30.40;51.20;;;;;;5016374;28;20872;-70
2021/10/02 10:55:13;;;;;;;3.60;3.13;;;29.70;52.40;;;;;;5016893;28;20453;-70
2021/10/02 10:57:42;;;;;;;3.80;3.20;;;29.20;52.90;;;;;;5017202;28;20456;-71
2021/10/02 11:00:14;;;;;;;7.33;3.43;;;28.60;54.20;;;;;;5016768;28;20457;-71
2021/10/02 11:02:49;;;;;;;6.60;3.27;;;28.40;54.80;;;;;;5016771;28;20429;-71
2021/10/02 11:05:51;;;;;;;4.40;4.00;;;28.20;55.30;;;;;;5016828;28;20460;-71
2021/10/02 11:08:23;;;;;;;4.33;3.60;;;27.70;56.20;;;;;;5016454;28;20444;-72
2021/10/02 11:10:56;;;;;;;3.50;3.30;;;27.20;57.00;;;;;;5016355;28;20475;-71
2021/10/02 11:13:54;;;;;;;4.50;3.53;;;26.80;58.00;;;;;;5016463;28;20461;-71
2021/10/02 11:16:32;;;;;;;3.13;2.93;;;26.60;57.70;;;;;;5016202;28;20433;-71
2021/10/02 11:18:59;;;;;;;3.03;2.87;;;26.30;58.00;;;;;;5016113;28;20452;-72
2021/10/02 11:21:31;;;;;;;4.03;3.73;;;26.20;59.60;;;;;;5016359;28;20484;-67
2021/10/02 11:24:07;;;;;;;4.27;2.90;;;26.10;59.40;;;;;;5015964;28;20893;-66
2021/10/02 11:26:46;;;;;;;11.10;4.40;;;26.40;60.40;;;;;;5016063;28;20523;-66
2021/10/02 11:29:32;;;;;;;4.33;3.70;;;26.70;59.80;;;;;;5016563;28;20433;-66
2021/10/02 11:32:26;;;;;;;13.23;11.83;;;27.10;59.60;;;;;;5015899;28;20484;-67
2021/10/02 11:35:13;;;;;;;4.90;4.50;;;27.50;57.90;;;;;;5016029;28;20927;-67
2021/10/02 11:37:51;;;;;;;5.10;4.60;;;27.50;56.40;;;;;;5015386;28;20459;-67
2021/10/02 11:40:49;;;;;;;4.10;3.70;;;26.90;56.90;;;;;;5015147;28;20915;-66
2021/10/02 11:43:33;;;;;;;5.50;5.00;;;26.50;57.10;;;;;;5015784;28;20457;-66
2021/10/02 11:46:03;;;;;;;4.40;3.90;;;26.30;58.90;;;;;;5016389;28;20448;-67
2021/10/02 11:48:40;;;;;;;4.57;3.87;;;26.40;58.70;;;;;;5016050;28;20453;-67
2021/10/02 11:51:16;;;;;;;3.70;3.40;;;26.70;58.70;;;;;;5015896;28;21040;-66
2021/10/02 11:53:46;;;;;;;3.07;2.87;;;27.20;58.20;;;;;;5016002;28;20457;-66
2021/10/02 11:56:16;;;;;;;3.97;3.60;;;27.30;56.50;;;;;;5015204;28;20932;-64
2021/10/02 11:58:43;;;;;;;4.23;3.93;;;27.40;57.70;;;;;;5015423;28;20595;-66
2021/10/02 12:01:17;;;;;;;4.87;3.00;;;27.50;58.10;;;;;;5015581;28;20480;-66
2021/10/02 12:03:44;;;;;;;3.40;3.20;;;27.60;58.10;;;;;;5015511;28;20435;-66
2021/10/02 12:06:11;;;;;;;4.23;3.70;;;27.20;57.60;;;;;;5015161;28;20457;-64
2021/10/02 12:08:39;;;;;;;3.00;2.80;;;27.50;58.30;;;;;;5015775;28;20457;-67
2021/10/02 12:11:09;;;;;;;3.17;2.97;;;27.60;57.30;;;;;;5016546;28;20480;-67
2021/10/02 12:13:38;;;;;;;4.33;4.10;;;27.70;55.90;;;;;;5014980;28;20461;-66
2021/10/02 12:16:07;;;;;;;3.80;3.60;;;27.70;57.90;;;;;;5015173;28;20464;-67
2021/10/02 12:18:46;;;;;;;4.53;2.90;;;27.70;57.60;;;;;;5014368;28;20453;-64
2021/10/02 12:21:14;;;;;;;3.13;2.93;;;27.60;57.40;;;;;;5015043;28;20480;-68
2021/10/02 12:23:54;;;;;;;3.73;3.43;;;27.60;55.80;;;;;;5014840;28;20448;-65
2021/10/02 12:26:24;;;;;;;2.97;2.77;;;27.30;57.30;;;;;;5014873;28;20447;-64
2021/10/02 12:28:57;;;;;;;5.80;3.43;;;27.20;57.20;;;;;;5015221;28;20445;-65
2021/10/02 12:31:23;;;;;;;4.77;4.40;;;27.10;57.80;;;;;;5015181;28;20572;-63
2021/10/02 12:33:50;;;;;;;4.97;4.67;;;27.00;58.30;;;;;;5014711;28;20484;-64
2021/10/02 12:36:17;;;;;;;6.37;5.77;;;26.90;58.40;;;;;;5014779;28;20460;-63
2021/10/02 12:38:46;;;;;;;30.33;27.80;;;26.90;59.00;;;;;;5014669;28;20459;-67
2021/10/02 12:41:12;;;;;;;5.57;5.10;;;27.00;59.50;;;;;;5014588;28;20468;-65
2021/10/02 12:43:40;;;;;;;5.32;4.38;;;26.80;59.10;;;;;;5014144;28;20457;-64
2021/10/02 12:46:19;;;;;;;3.60;3.40;;;26.70;59.30;;;;;;5014550;28;20202;-65
2021/10/02 12:48:46;;;;;;;3.77;3.23;;;26.10;58.80;;;;;;5014078;28;20836;-65
2021/10/02 12:51:14;;;;;;;3.60;3.30;;;25.60;59.50;;;;;;5014532;28;20479;-63
2021/10/02 12:53:40;;;;;;;2.97;2.77;;;25.50;59.30;;;;;;5014482;28;21007;-62
2021/10/02 12:56:18;;;;;;;3.57;3.37;;;25.30;59.40;;;;;;5014991;28;20487;-64
2021/10/02 12:58:47;;;;;;;4.03;3.00;;;25.20;59.90;;;;;;5015001;28;20440;-64
2021/10/02 13:01:13;;;;;;;3.40;3.20;;;25.30;60.80;;;;;;5014697;28;20492;-65
2021/10/02 13:03:40;;;;;;;4.17;3.77;;;25.30;62.90;;;;;;5014392;28;20449;-63
2021/10/02 13:06:08;;;;;;;3.80;3.37;;;25.40;62.60;;;;;;5014778;28;20456;-63
2021/10/02 13:08:34;;;;;;;3.53;3.30;;;25.50;64.20;;;;;;5014011;28;20457;-63
2021/10/02 13:11:01;;;;;;;3.73;3.40;;;25.50;62.60;;;;;;5013900;28;20472;-63
2021/10/02 13:13:28;;;;;;;3.77;3.33;;;25.70;62.70;;;;;;5014496;28;20481;-63
2021/10/02 13:15:58;;;;;;;5.50;3.70;;;25.80;61.50;;;;;;5014682;28;20463;-65
2021/10/02 13:18:27;;;;;;;3.97;3.67;;;26.00;64.60;;;;;;5014698;28;20441;-63
2021/10/02 13:20:56;;;;;;;3.70;3.40;;;26.10;62.20;;;;;;5027207;28;20475;-64
2021/10/02 13:23:28;;;;;;;3.37;3.17;;;26.10;61.20;;;;;;5028602;28;20449;-63
2021/10/02 13:25:57;;;;;;;4.10;3.60;;;26.20;61.10;;;;;;5029871;28;20884;-63
2021/10/02 13:28:26;;;;;;;4.00;3.70;;;26.50;61.50;;;;;;5022081;28;20455;-66
2021/10/02 13:30:54;;;;;;;3.60;3.30;;;26.80;61.60;;;;;;5018433;28;20479;-65
2021/10/02 13:33:23;;;;;;;3.70;3.50;;;26.70;60.80;;;;;;5019490;28;20480;-64
2021/10/02 13:35:52;;;;;;;3.90;3.37;;;26.60;59.80;;;;;;5018612;28;20464;-64
2021/10/02 13:38:30;;;;;;;3.60;3.30;;;26.30;59.80;;;;;;5018473;28;20811;-64
2021/10/02 13:41:00;;;;;;;3.37;3.17;;;26.20;59.60;;;;;;5019632;28;20515;-64
2021/10/02 13:43:26;;;;;;;3.47;3.27;;;26.10;60.60;;;;;;5018136;28;20944;-64
2021/10/02 13:45:53;;;;;;;3.97;3.67;;;26.30;61.90;;;;;;5017910;28;20453;-65
2021/10/02 13:48:27;;;;;;;4.00;2.87;;;26.30;60.10;;;;;;5017513;28;20971;-65
2021/10/02 13:50:55;;;;;;;3.17;2.97;;;26.30;60.60;;;;;;5017872;28;20472;-65
2021/10/02 13:53:22;;;;;;;3.80;3.40;;;26.40;61.40;;;;;;5018019;28;20480;-64
2021/10/02 13:55:49;;;;;;;6.40;3.23;;;26.40;60.40;;;;;;5017901;28;20453;-65
2021/10/02 13:58:16;;;;;;;4.50;4.10;;;26.20;60.00;;;;;;5017985;28;20459;-65
2021/10/02 14:00:43;;;;;;;5.17;4.77;;;26.00;60.60;;;;;;5017693;28;20492;-65
2021/10/02 14:03:10;;;;;;;5.40;4.90;;;25.80;61.10;;;;;;5018252;28;20437;-66
2021/10/02 14:05:39;;;;;;;5.40;4.90;;;25.60;62.10;;;;;;5017877;28;20472;-67
2021/10/02 14:08:07;;;;;;;5.53;5.03;;;25.40;62.00;;;;;;5017834;28;20540;-66
2021/10/02 14:10:33;;;;;;;3.90;3.60;;;25.50;63.40;;;;;;5017412;28;20850;-66
2021/10/02 14:13:00;;;;;;;4.97;3.10;;;25.50;64.60;;;;;;5016878;28;20457;-66
2021/10/02 14:15:27;;;;;;;5.93;5.37;;;25.60;62.20;;;;;;5017788;28;20819;-65
2021/10/02 14:17:54;;;;;;;4.00;3.80;;;25.70;62.60;;;;;;5017539;28;20456;-66
2021/10/02 14:20:20;;;;;;;3.30;3.10;;;25.60;62.40;;;;;;5017398;28;20453;-66
2021/10/02 14:22:50;;;;;;;3.30;3.10;;;25.60;62.60;;;;;;5017565;28;20460;-65
2021/10/02 14:25:16;;;;;;;3.60;3.30;;;25.70;63.60;;;;;;5018004;28;20488;-64
2021/10/02 14:27:43;;;;;;;3.60;3.40;;;25.60;62.70;;;;;;5017770;28;20820;-64
2021/10/02 14:30:11;;;;;;;5.80;4.40;;;25.60;63.50;;;;;;5017450;28;20943;-64
2021/10/02 14:32:38;;;;;;;3.90;3.60;;;25.70;63.60;;;;;;5017004;28;20481;-64
2021/10/02 14:35:06;;;;;;;4.23;3.90;;;25.60;63.60;;;;;;5016913;28;20484;-65
2021/10/02 14:37:33;;;;;;;3.47;3.27;;;25.60;63.70;;;;;;5016973;28;20990;-65
2021/10/02 14:40:01;;;;;;;3.47;3.27;;;25.60;63.30;;;;;;5016713;28;20963;-65
2021/10/02 14:42:28;;;;;;;6.40;4.73;;;25.50;63.10;;;;;;5016088;28;20473;-65
2021/10/02 14:44:55;;;;;;;5.60;3.53;;;25.40;63.30;;;;;;5017146;28;20449;-65
2021/10/02 14:47:22;;;;;;;3.80;3.57;;;25.30;62.90;;;;;;5016656;28;20452;-65
2021/10/02 14:49:49;;;;;;;3.10;2.90;;;25.30;64.50;;;;;;5017634;28;20468;-64
2021/10/02 14:52:17;;;;;;;3.50;3.20;;;25.30;63.30;;;;;;5019383;28;20495;-68
2021/10/02 14:54:45;;;;;;;4.30;3.90;;;25.20;62.80;;;;;;5017559;28;20500;-67
2021/10/02 14:57:13;;;;;;;4.13;3.83;;;25.10;64.10;;;;;;5017545;28;20457;-67
2021/10/02 14:59:43;;;;;;;4.40;4.10;;;25.20;63.80;;;;;;5017613;28;20818;-64
2021/10/02 15:02:12;;;;;;;8.63;4.57;;;25.20;64.50;;;;;;5017193;28;20484;-65
2021/10/02 15:04:39;;;;;;;4.00;3.70;;;25.30;64.20;;;;;;5017018;28;20463;-65
2021/10/02 15:07:06;;;;;;;4.03;3.77;;;25.20;63.50;;;;;;5017014;28;20532;-66
2021/10/02 15:09:34;;;;;;;3.97;3.67;;;25.00;63.80;;;;;;5017372;28;20457;-65
2021/10/02 15:12:04;;;;;;;4.60;3.87;;;25.00;64.40;;;;;;5018056;28;20487;-65
2021/10/02 15:14:32;;;;;;;4.10;3.70;;;24.90;64.40;;;;;;5022718;28;20476;-65
2021/10/02 15:16:59;;;;;;;6.00;3.67;;;24.90;64.90;;;;;;5016227;28;20464;-64
2021/10/02 15:19:26;;;;;;;4.30;3.93;;;24.80;65.50;;;;;;5016062;28;20464;-64
2021/10/02 15:21:58;;;;;;;5.60;5.10;;;24.70;66.10;;;;;;5017217;28;20476;-66
2021/10/02 15:24:28;;;;;;;4.10;3.80;;;24.70;67.00;;;;;;5015103;28;20451;-66
2021/10/02 15:26:56;;;;;;;3.83;3.60;;;24.60;67.00;;;;;;5015965;28;20218;-66
2021/10/02 15:29:26;;;;;;;5.73;3.77;;;24.50;67.10;;;;;;5015892;28;20799;-65
2021/10/02 15:32:01;;;;;;;4.67;4.27;;;24.50;67.90;;;;;;5015830;28;20499;-65
2021/10/02 15:34:28;;;;;;;3.70;3.50;;;24.30;67.20;;;;;;5015883;28;20460;-64
2021/10/02 15:36:59;;;;;;;4.17;3.87;;;24.20;68.30;;;;;;5015538;28;20457;-64
2021/10/02 15:39:26;;;;;;;4.80;4.40;;;24.20;69.20;;;;;;5015710;28;20450;-67
2021/10/02 15:41:53;;;;;;;4.90;3.90;;;24.20;69.30;;;;;;5016078;28;20506;-67
2021/10/02 15:44:21;;;;;;;4.40;4.00;;;24.30;69.40;;;;;;5015391;28;20480;-67
2021/10/02 15:46:50;;;;;;;4.20;3.90;;;24.20;69.70;;;;;;5015596;28;20932;-67
2021/10/02 15:49:20;;;;;;;4.93;4.53;;;24.10;69.80;;;;;;5015728;28;20492;-67
2021/10/02 15:51:47;;;;;;;6.87;5.97;;;24.00;70.30;;;;;;5015606;28;20515;-67
2021/10/02 15:54:14;;;;;;;4.47;4.07;;;23.90;70.40;;;;;;5015199;28;20473;-67
2021/10/02 15:56:42;;;;;;;4.70;4.30;;;23.70;70.60;;;;;;5015229;28;20817;-67
2021/10/02 15:59:12;;;;;;;6.20;5.30;;;23.50;70.80;;;;;;5015755;28;20530;-67
2021/10/02 16:01:44;;;;;;;5.63;4.50;;;23.50;71.30;;;;;;5015828;28;20488;-67
2021/10/02 16:04:25;;;;;;;5.53;4.10;;;23.50;71.80;;;;;;5015773;28;20437;-67
2021/10/02 16:06:57;;;;;;;5.00;4.23;;;23.50;71.60;;;;;;5015559;28;20440;-67
2021/10/02 16:09:24;;;;;;;5.73;4.30;;;23.40;71.30;;;;;;5015882;28;20433;-67
2021/10/02 16:11:53;;;;;;;5.07;4.47;;;23.30;71.20;;;;;;5017070;28;20472;-67
2021/10/02 16:14:25;;;;;;;4.37;4.03;;;23.30;72.00;;;;;;5014990;28;20472;-67
2021/10/02 16:16:52;;;;;;;4.27;3.90;;;23.30;72.00;;;;;;5015535;28;20784;-67
2021/10/02 16:19:22;;;;;;;6.70;4.43;;;23.20;72.20;;;;;;5014717;28;20457;-67
2021/10/02 16:21:49;;;;;;;4.53;4.13;;;23.20;72.60;;;;;;5014922;28;20475;-67
2021/10/02 16:24:17;;;;;;;6.13;4.57;;;23.10;72.90;;;;;;5014775;28;20988;-67
2021/10/02 16:26:45;;;;;;;4.03;3.73;;;23.10;73.30;;;;;;5014873;28;20936;-67
2021/10/02 16:29:11;;;;;;;5.20;4.80;;;23.00;73.40;;;;;;5014910;28;20452;-67
2021/10/02 16:31:38;;;;;;;4.93;4.53;;;22.90;73.90;;;;;;5014943;28;20487;-67
2021/10/02 16:34:05;;;;;;;4.93;4.50;;;22.80;74.40;;;;;;5014968;28;20480;-67
2021/10/02 16:36:34;;;;;;;6.80;4.70;;;22.80;74.60;;;;;;5014865;28;20983;-67
2021/10/02 16:39:04;;;;;;;7.17;4.70;;;22.70;74.90;;;;;;5015109;28;20452;-67
2021/10/02 16:41:31;;;;;;;6.20;5.33;;;22.60;75.50;;;;;;5015954;28;20480;-67
2021/10/02 16:43:59;;;;;;;4.73;4.43;;;22.50;76.60;;;;;;5016249;28;20452;-67
2021/10/02 16:46:27;;;;;;;5.40;4.90;;;22.40;77.70;;;;;;5018036;28;20449;-67
2021/10/02 16:48:54;;;;;;;4.70;4.10;;;22.30;78.90;;;;;;5014919;28;20453;-67
2021/10/02 16:51:21;;;;;;;6.80;4.77;;;22.20;79.90;;;;;;5014791;28;20461;-67
2021/10/02 16:53:51;;;;;;;5.50;5.00;;;22.10;81.10;;;;;;5014878;28;20456;-67